createdAt,value
2022-12-18T00:00:34.349Z,3.83
2022-12-18T00:03:25.105Z,4.73
2022-12-18T00:05:58.048Z,4.10
2022-12-18T00:08:35.060Z,4.47
2022-12-18T00:11:20.523Z,4.57
2022-12-18T00:14:17.250Z,4.67
2022-12-18T00:16:52.418Z,4.57
2022-12-18T00:19:33.556Z,4.77
2022-12-18T00:22:09.193Z,3.07
2022-12-18T00:24:40.798Z,3.60
2022-12-18T00:27:14.925Z,4.17
2022-12-18T00:30:08.391Z,5.13
2022-12-18T00:32:44.750Z,4.33
2022-12-18T00:35:17.689Z,4.53
2022-12-18T00:37:50.588Z,4.60
2022-12-18T00:40:19.878Z,4.83
2022-12-18T00:42:57.421Z,4.93
2022-12-18T00:45:33.841Z,3.67
2022-12-18T00:48:10.141Z,3.70
2022-12-18T00:50:50.230Z,4.37
2022-12-18T00:53:18.629Z,4.33
2022-12-18T00:55:56.440Z,5.17
2022-12-18T00:58:39.180Z,6.63
2022-12-18T01:01:08.043Z,4.90
2022-12-18T01:03:37.228Z,5.80
2022-12-18T01:06:08.562Z,5.17
2022-12-18T01:08:37.182Z,5.47
2022-12-18T01:11:11.209Z,4.57
2022-12-18T01:13:41.576Z,5.03
2022-12-18T01:16:10.310Z,4.50
2022-12-18T01:18:38.640Z,5.00
2022-12-18T01:21:09.272Z,4.77
2022-12-18T01:23:38.167Z,5.00
2022-12-18T01:26:08.332Z,5.60
2022-12-18T01:28:36.624Z,5.20
2022-12-18T01:31:19.205Z,5.40
2022-12-18T01:33:47.828Z,5.20
2022-12-18T01:36:21.488Z,5.27
2022-12-18T01:38:50.055Z,5.57
2022-12-18T01:41:19.966Z,5.70
2022-12-18T01:43:53.783Z,5.67
2022-12-18T01:46:26.888Z,6.07
2022-12-18T01:48:58.850Z,5.70
2022-12-18T01:51:29.095Z,6.50
2022-12-18T01:53:59.608Z,6.43
2022-12-18T01:56:27.878Z,5.63
2022-12-18T01:59:00.513Z,6.10
2022-12-18T02:01:33.265Z,6.83
2022-12-18T02:04:22.177Z,6.27
2022-12-18T02:06:57.207Z,6.03
2022-12-18T02:09:30.898Z,6.00
2022-12-18T02:12:08.130Z,7.03
2022-12-18T02:14:42.527Z,8.13
2022-12-18T02:17:15.875Z,10.90
2022-12-18T02:20:04.286Z,7.73
2022-12-18T02:22:40.196Z,8.03
2022-12-18T02:25:19.829Z,7.30
2022-12-18T02:27:51.472Z,7.43
2022-12-18T02:30:21.170Z,7.20
2022-12-18T02:32:54.176Z,6.90
2022-12-18T02:35:26.041Z,7.40
2022-12-18T02:37:56.102Z,6.70
2022-12-18T02:40:28.302Z,7.37
2022-12-18T02:42:58.506Z,6.93
2022-12-18T02:45:27.091Z,6.63
2022-12-18T02:47:56.419Z,6.40
2022-12-18T02:50:33.268Z,6.77
2022-12-18T02:53:12.328Z,5.47
2022-12-18T02:55:54.354Z,6.10
2022-12-18T02:58:31.820Z,5.87
2022-12-18T03:01:03.851Z,6.20
2022-12-18T03:03:36.495Z,6.37
2022-12-18T03:06:10.736Z,6.97
2022-12-18T03:08:43.812Z,6.73
2022-12-18T03:11:36.993Z,6.87
2022-12-18T03:14:09.381Z,7.17
2022-12-18T03:16:38.907Z,6.73
2022-12-18T03:19:11.993Z,6.60
2022-12-18T03:21:45.499Z,5.17
2022-12-18T03:24:14.404Z,6.37
2022-12-18T03:26:45.899Z,6.43
2022-12-18T03:29:21.013Z,5.93
2022-12-18T03:31:54.665Z,6.20
2022-12-18T03:34:28.846Z,6.43
2022-12-18T03:36:58.650Z,6.27
2022-12-18T03:39:27.541Z,5.97
2022-12-18T03:42:03.798Z,5.73
2022-12-18T03:44:42.103Z,6.07
2022-12-18T03:47:15.987Z,6.10
2022-12-18T03:49:50.940Z,6.33
2022-12-18T03:52:26.362Z,6.10
2022-12-18T03:54:56.662Z,6.57
2022-12-18T03:57:29.480Z,6.70
2022-12-18T04:00:05.122Z,7.30
2022-12-18T04:02:35.481Z,7.40
2022-12-18T04:05:06.952Z,6.97
2022-12-18T04:07:35.673Z,7.30
2022-12-18T04:10:05.508Z,6.90
2022-12-18T04:12:33.853Z,8.00
2022-12-18T04:15:04.234Z,6.73
2022-12-18T04:17:33.301Z,7.63
2022-12-18T04:20:01.503Z,7.13
2022-12-18T04:22:29.810Z,7.07
2022-12-18T04:24:58.426Z,6.43
2022-12-18T04:27:26.788Z,6.23
2022-12-18T04:29:54.907Z,6.50
2022-12-18T04:32:24.826Z,5.67
2022-12-18T04:34:53.089Z,4.33
2022-12-18T04:37:21.283Z,5.13
2022-12-18T04:39:49.651Z,5.37
2022-12-18T04:42:18.744Z,5.87
2022-12-18T04:44:46.859Z,5.63
2022-12-18T04:47:15.207Z,5.83
2022-12-18T04:49:44.767Z,5.27
2022-12-18T04:52:12.904Z,6.03
2022-12-18T04:54:41.715Z,4.77
2022-12-18T04:57:10.262Z,5.70
2022-12-18T04:59:38.404Z,5.57
2022-12-18T05:02:06.938Z,6.13
2022-12-18T05:04:35.251Z,6.00
2022-12-18T05:07:05.738Z,6.20
2022-12-18T05:09:33.887Z,5.73
2022-12-18T05:12:02.258Z,6.47
2022-12-18T05:14:30.774Z,5.50
2022-12-18T05:17:01.091Z,5.20
2022-12-18T05:19:29.757Z,5.67
2022-12-18T05:21:58.405Z,6.03
2022-12-18T05:24:28.697Z,5.13
2022-12-18T05:26:56.969Z,4.73
2022-12-18T05:29:26.076Z,5.07
2022-12-18T05:31:54.952Z,5.43
2022-12-18T05:34:23.456Z,6.47
2022-12-18T05:36:51.648Z,5.43
2022-12-18T05:39:19.813Z,6.27
2022-12-18T05:41:49.352Z,8.10
2022-12-18T05:44:17.952Z,10.47
2022-12-18T05:46:46.845Z,7.50
2022-12-18T05:49:18.078Z,7.13
2022-12-18T05:51:46.958Z,6.23
2022-12-18T05:54:15.091Z,5.77
2022-12-18T05:56:48.509Z,5.30
2022-12-18T05:59:18.822Z,6.30
2022-12-18T06:01:47.101Z,7.07
2022-12-18T06:04:15.509Z,7.00
2022-12-18T06:06:43.830Z,6.47
2022-12-18T06:09:12.855Z,6.70
2022-12-18T06:11:41.263Z,5.83
2022-12-18T06:14:11.735Z,6.23
2022-12-18T06:16:41.356Z,6.50
2022-12-18T06:19:09.480Z,6.43
2022-12-18T06:21:37.809Z,6.17
2022-12-18T06:24:06.905Z,6.47
2022-12-18T06:26:35.577Z,6.33
2022-12-18T06:29:04.098Z,7.50
2022-12-18T06:31:32.343Z,6.43
2022-12-18T06:34:03.817Z,7.10
2022-12-18T06:36:32.385Z,7.63
2022-12-18T06:39:01.471Z,7.53
2022-12-18T06:41:29.578Z,7.83
2022-12-18T06:43:59.954Z,8.40
2022-12-18T06:46:29.693Z,8.17
2022-12-18T06:48:57.862Z,9.03
2022-12-18T06:51:28.290Z,7.53
2022-12-18T06:53:57.116Z,6.27
2022-12-18T06:56:25.502Z,7.43
2022-12-18T06:58:54.333Z,7.30
2022-12-18T07:01:22.909Z,9.13
2022-12-18T07:03:55.604Z,11.17
2022-12-18T07:06:25.947Z,9.83
2022-12-18T07:08:56.646Z,8.17
2022-12-18T07:11:25.369Z,8.73
2022-12-18T07:13:55.343Z,8.50
2022-12-18T07:16:25.549Z,5.60
2022-12-18T07:18:56.647Z,9.43
2022-12-18T07:21:27.147Z,9.97
2022-12-18T07:24:00.241Z,9.33
2022-12-18T07:26:28.591Z,10.03
2022-12-18T07:28:58.444Z,11.30
2022-12-18T07:31:28.207Z,9.07
2022-12-18T07:33:56.942Z,9.60
2022-12-18T07:36:25.731Z,10.60
2022-12-18T07:38:55.040Z,13.63
2022-12-18T07:41:25.551Z,11.90
2022-12-18T07:43:54.900Z,10.00
2022-12-18T07:46:23.407Z,9.43
2022-12-18T07:48:51.823Z,8.63
2022-12-18T07:51:20.716Z,8.73
2022-12-18T07:53:52.550Z,8.90
2022-12-18T07:56:30.575Z,7.50
2022-12-18T07:59:01.582Z,8.60
2022-12-18T08:01:30.186Z,8.73
2022-12-18T08:04:00.153Z,8.23
2022-12-18T08:06:28.812Z,7.83
2022-12-18T08:08:57.971Z,6.57
2022-12-18T08:11:28.550Z,6.60
2022-12-18T08:13:57.144Z,6.47
2022-12-18T08:16:28.949Z,6.90
2022-12-18T08:18:57.692Z,5.53
2022-12-18T08:21:28.829Z,4.40
2022-12-18T08:23:59.037Z,4.40
2022-12-18T08:26:29.336Z,3.90
2022-12-18T08:28:58.459Z,3.90
2022-12-18T08:31:30.324Z,4.60
2022-12-18T08:33:59.513Z,8.77
2022-12-18T08:36:27.739Z,7.00
2022-12-18T08:38:56.264Z,4.80
2022-12-18T08:41:25.623Z,3.43
2022-12-18T08:44:11.199Z,3.67
2022-12-18T08:46:42.666Z,3.30
2022-12-18T08:49:12.479Z,4.83
2022-12-18T08:51:41.305Z,4.37
2022-12-18T08:54:12.860Z,3.73
2022-12-18T08:56:42.124Z,4.13
2022-12-18T08:59:17.309Z,3.90
2022-12-18T09:01:48.443Z,4.13
2022-12-18T09:04:16.736Z,5.03
2022-12-18T09:06:45.096Z,6.17
2022-12-18T09:09:13.492Z,4.30
2022-12-18T09:11:41.846Z,6.03
2022-12-18T09:14:12.475Z,6.37
2022-12-18T09:16:40.789Z,5.07
2022-12-18T09:19:11.930Z,5.73
2022-12-18T09:21:46.067Z,5.00
2022-12-18T09:24:18.984Z,4.87
2022-12-18T09:26:47.782Z,4.37
2022-12-18T09:29:17.059Z,4.03
2022-12-18T09:31:47.928Z,3.70
2022-12-18T09:34:18.597Z,4.03
2022-12-18T09:36:46.762Z,4.03
2022-12-18T09:39:16.054Z,3.80
2022-12-18T09:41:48.912Z,3.97
2022-12-18T09:44:25.991Z,4.67
2022-12-18T09:47:10.491Z,5.10
2022-12-18T09:49:45.093Z,4.10
2022-12-18T09:52:20.098Z,5.30
2022-12-18T09:54:56.136Z,6.10
2022-12-18T09:57:26.547Z,7.00
2022-12-18T10:00:01.607Z,6.13
2022-12-18T10:02:35.177Z,6.87
2022-12-18T10:05:11.634Z,3.83
2022-12-18T10:07:59.073Z,5.03
2022-12-18T10:10:39.360Z,5.70
2022-12-18T10:13:24.052Z,3.73
2022-12-18T10:16:02.502Z,3.13
2022-12-18T10:18:54.130Z,3.17
2022-12-18T10:21:33.005Z,3.20
2022-12-18T10:24:07.782Z,3.23
2022-12-18T10:26:36.548Z,3.40
2022-12-18T10:29:13.617Z,3.60
2022-12-18T10:31:42.619Z,3.17
2022-12-18T10:34:15.213Z,3.90
2022-12-18T10:36:45.651Z,2.43
2022-12-18T10:39:19.329Z,3.60
2022-12-18T10:41:47.624Z,3.87
2022-12-18T10:44:19.869Z,3.57
2022-12-18T10:46:56.972Z,3.13
2022-12-18T10:49:28.903Z,3.00
2022-12-18T10:52:16.161Z,3.30
2022-12-18T10:54:50.757Z,2.90
2022-12-18T10:57:34.280Z,3.30
2022-12-18T11:00:26.511Z,2.83
2022-12-18T11:02:55.691Z,3.40
2022-12-18T11:05:31.510Z,3.40
2022-12-18T11:08:02.532Z,3.33
2022-12-18T11:10:33.796Z,3.37
2022-12-18T11:13:14.311Z,3.43
2022-12-18T11:15:43.681Z,4.17
2022-12-18T11:18:20.998Z,3.70
2022-12-18T11:20:58.463Z,2.67
2022-12-18T11:23:29.874Z,3.77
2022-12-18T11:26:02.719Z,3.70
2022-12-18T11:28:40.026Z,3.33
2022-12-18T11:31:24.527Z,3.47
2022-12-18T11:36:50.797Z,3.67
2022-12-18T11:39:26.079Z,3.30
2022-12-18T11:42:13.529Z,3.87
2022-12-18T11:44:48.228Z,3.50
2022-12-18T11:47:27.361Z,2.77
2022-12-18T11:50:02.116Z,4.10
2022-12-18T11:52:38.014Z,3.47
2022-12-18T11:55:13.996Z,3.80
2022-12-18T11:57:52.199Z,4.10
2022-12-18T12:00:22.226Z,4.35
2022-12-18T12:03:17.636Z,4.10
2022-12-18T12:06:02.191Z,4.07
2022-12-18T12:08:41.901Z,3.53
2022-12-18T12:11:19.740Z,3.77
2022-12-18T12:14:03.090Z,3.60
2022-12-18T12:16:39.376Z,4.23
2022-12-18T12:19:24.081Z,3.87
2022-12-18T12:21:56.051Z,3.87
2022-12-18T12:24:35.689Z,3.97
2022-12-18T12:27:11.059Z,3.67
2022-12-18T12:29:52.123Z,3.73
2022-12-18T12:32:37.056Z,3.90
2022-12-18T12:35:19.062Z,3.97
2022-12-18T12:38:00.880Z,3.93
2022-12-18T12:43:46.251Z,3.73
2022-12-18T12:46:20.175Z,3.97
2022-12-18T12:48:54.029Z,3.50
2022-12-18T12:51:24.839Z,3.70
2022-12-18T12:53:55.550Z,3.70
2022-12-18T12:56:26.730Z,3.87
2022-12-18T12:59:04.211Z,3.70
2022-12-18T13:01:42.087Z,3.83
2022-12-18T13:04:24.216Z,3.93
2022-12-18T13:07:01.153Z,4.00
2022-12-18T13:09:32.797Z,3.50
2022-12-18T13:12:23.188Z,3.70
2022-12-18T13:14:53.486Z,3.93
2022-12-18T13:17:31.781Z,4.47
2022-12-18T13:20:12.192Z,3.30
2022-12-18T13:22:48.019Z,4.07
2022-12-18T13:25:37.223Z,3.80
2022-12-18T13:28:10.636Z,3.40
2022-12-18T13:30:51.791Z,4.50
2022-12-18T13:33:51.083Z,3.40
2022-12-18T13:36:33.297Z,3.70
2022-12-18T13:39:34.111Z,3.60
2022-12-18T13:42:56.086Z,3.40
2022-12-18T13:45:46.149Z,3.07
2022-12-18T13:48:23.143Z,3.37
2022-12-18T13:51:00.815Z,3.10
2022-12-18T13:53:33.025Z,3.30
2022-12-18T13:56:01.416Z,3.17
2022-12-18T13:58:29.940Z,3.77
2022-12-18T14:01:00.156Z,3.33
2022-12-18T14:03:32.513Z,3.90
2022-12-18T14:06:05.610Z,4.67
2022-12-18T14:08:41.519Z,3.50
2022-12-18T14:11:21.807Z,3.40
2022-12-18T14:13:51.487Z,3.00
2022-12-18T14:16:19.894Z,3.50
2022-12-18T14:18:55.519Z,3.17
2022-12-18T14:21:30.264Z,2.87
2022-12-18T14:24:14.348Z,3.43
2022-12-18T14:26:44.239Z,3.67
2022-12-18T14:29:25.626Z,3.27
2022-12-18T14:32:16.538Z,3.77
2022-12-18T14:34:48.271Z,3.77
2022-12-18T14:37:19.191Z,3.53
2022-12-18T14:39:59.015Z,3.90
2022-12-18T14:42:29.128Z,3.70
2022-12-18T14:45:41.823Z,4.37
2022-12-18T14:48:22.915Z,3.93
2022-12-18T14:51:02.222Z,3.37
2022-12-18T14:53:44.514Z,3.63
2022-12-18T14:56:19.415Z,3.80
2022-12-18T14:58:49.539Z,4.10
2022-12-18T15:01:23.856Z,3.97
2022-12-18T15:03:53.973Z,4.50
2022-12-18T15:06:31.303Z,5.38
2022-12-18T15:09:00.588Z,5.17
2022-12-18T15:11:31.474Z,4.57
2022-12-18T15:14:01.567Z,4.63
2022-12-18T15:16:30.486Z,4.70
2022-12-18T15:19:01.560Z,4.60
2022-12-18T15:21:32.829Z,3.73
2022-12-18T15:24:01.008Z,4.20
2022-12-18T15:26:39.142Z,4.60
2022-12-18T15:29:20.845Z,4.87
2022-12-18T15:32:04.143Z,4.67
2022-12-18T15:34:34.847Z,5.30
2022-12-18T15:37:04.480Z,4.80
2022-12-18T15:39:33.757Z,4.53
2022-12-18T15:42:20.953Z,4.00
2022-12-18T15:44:49.510Z,4.43
2022-12-18T15:47:17.675Z,5.07
2022-12-18T15:49:46.335Z,5.10
2022-12-18T15:52:27.333Z,4.80
2022-12-18T15:55:28.045Z,4.87
2022-12-18T15:57:56.734Z,4.43
2022-12-18T16:00:25.204Z,4.37
2022-12-18T16:02:53.573Z,4.80
2022-12-18T16:05:24.279Z,5.17
2022-12-18T16:07:53.763Z,4.80
2022-12-18T16:10:22.741Z,5.57
2022-12-18T16:12:50.919Z,4.93
2022-12-18T16:15:24.273Z,4.30
2022-12-18T16:17:54.260Z,4.70
2022-12-18T16:20:24.349Z,5.53
2022-12-18T16:22:54.434Z,5.00
2022-12-18T16:25:28.123Z,5.87
2022-12-18T16:27:57.601Z,4.43
2022-12-18T16:30:28.712Z,5.70
2022-12-18T16:33:01.014Z,5.27
2022-12-18T16:35:29.245Z,5.43
2022-12-18T16:37:59.247Z,6.10
2022-12-18T16:40:27.681Z,5.27
2022-12-18T16:42:58.742Z,5.37
2022-12-18T16:45:34.060Z,5.33
2022-12-18T16:48:02.918Z,5.30
2022-12-18T16:50:31.082Z,5.00
2022-12-18T16:53:01.474Z,5.80
2022-12-18T16:55:29.729Z,5.53
2022-12-18T16:57:57.960Z,5.33
2022-12-18T17:00:28.672Z,6.23
2022-12-18T17:02:57.029Z,5.60
2022-12-18T17:05:26.556Z,5.17
2022-12-18T17:07:55.029Z,5.80
2022-12-18T17:10:25.278Z,6.13
2022-12-18T17:12:53.793Z,6.07
2022-12-18T17:15:22.062Z,5.93
2022-12-18T17:17:50.280Z,5.43
2022-12-18T17:20:18.479Z,6.70
2022-12-18T17:22:48.357Z,6.83
2022-12-18T17:25:16.922Z,6.83
2022-12-18T17:27:46.477Z,6.80
2022-12-18T17:30:15.339Z,6.03
2022-12-18T17:32:43.432Z,6.57
2022-12-18T17:35:11.597Z,6.63
2022-12-18T17:37:41.742Z,6.27
2022-12-18T17:40:12.104Z,6.57
2022-12-18T17:42:40.410Z,6.77
2022-12-18T17:45:11.789Z,6.50
2022-12-18T17:47:42.417Z,6.60
2022-12-18T17:50:10.858Z,7.10
2022-12-18T17:52:39.083Z,5.67
2022-12-18T17:55:08.221Z,6.60
2022-12-18T17:57:36.574Z,6.57
2022-12-18T18:00:06.079Z,6.77
2022-12-18T18:02:37.590Z,7.37
2022-12-18T18:05:06.490Z,7.03
2022-12-18T18:07:36.570Z,6.60
2022-12-18T18:10:05.446Z,7.20
2022-12-18T18:12:51.811Z,7.53
2022-12-18T18:15:20.043Z,7.23
2022-12-18T18:17:49.959Z,7.27
2022-12-18T18:20:22.571Z,6.07
2022-12-18T18:22:51.120Z,6.47
2022-12-18T18:25:20.285Z,6.63
2022-12-18T18:27:48.986Z,6.70
2022-12-18T18:30:19.216Z,7.03
2022-12-18T18:32:50.281Z,6.03
2022-12-18T18:35:52.429Z,7.37
2022-12-18T18:38:09.247Z,6.67
2022-12-18T18:40:37.497Z,7.27
2022-12-18T18:43:05.704Z,7.80
2022-12-18T18:45:35.257Z,7.80
2022-12-18T18:48:05.621Z,6.87
2022-12-18T18:50:33.864Z,7.30
2022-12-18T18:53:03.030Z,6.90
2022-12-18T18:55:33.921Z,7.70
2022-12-18T18:58:02.991Z,7.10
2022-12-18T19:00:33.095Z,7.60
2022-12-18T19:03:01.572Z,7.30
2022-12-18T19:05:32.569Z,7.77
2022-12-18T19:08:03.086Z,7.90
2022-12-18T19:10:32.211Z,7.77
2022-12-18T19:13:18.109Z,6.63
2022-12-18T19:15:46.387Z,7.40
2022-12-18T19:18:14.940Z,7.70
2022-12-18T19:21:02.082Z,8.30
2022-12-18T19:23:32.497Z,8.97
2022-12-18T19:26:26.953Z,9.00
2022-12-18T19:28:53.143Z,7.60
2022-12-18T19:31:29.162Z,7.90
2022-12-18T19:34:14.141Z,9.30
2022-12-18T19:36:44.410Z,8.23
2022-12-18T19:39:14.835Z,8.77
2022-12-18T19:41:46.059Z,8.27
2022-12-18T19:44:21.459Z,8.23
2022-12-18T19:46:52.548Z,7.77
2022-12-18T19:49:23.824Z,7.57
2022-12-18T19:51:53.786Z,8.60
2022-12-18T19:54:22.091Z,7.90
2022-12-18T19:56:52.780Z,7.80
2022-12-18T19:59:22.181Z,8.27
2022-12-18T20:01:53.523Z,8.13
2022-12-18T20:04:21.948Z,8.33
2022-12-18T20:06:51.809Z,8.10
2022-12-18T20:09:22.494Z,8.27
2022-12-18T20:11:51.062Z,8.10
2022-12-18T20:14:22.321Z,7.93
2022-12-18T20:16:53.300Z,8.60
2022-12-18T20:19:22.535Z,9.00
2022-12-18T20:21:51.461Z,8.30
2022-12-18T20:24:21.187Z,7.90
2022-12-18T20:26:50.047Z,8.60
2022-12-18T20:29:19.020Z,9.67
2022-12-18T20:31:48.232Z,8.50
2022-12-18T20:34:16.819Z,9.10
2022-12-18T20:36:45.309Z,8.67
2022-12-18T20:39:13.649Z,9.33
2022-12-18T20:41:44.239Z,9.00
2022-12-18T20:44:21.630Z,8.50
2022-12-18T20:46:52.558Z,8.57
2022-12-18T20:49:21.014Z,8.43
2022-12-18T20:51:52.301Z,8.23
2022-12-18T20:54:21.491Z,9.07
2022-12-18T20:56:52.397Z,8.73
2022-12-18T20:59:20.983Z,7.80
2022-12-18T21:01:52.132Z,8.63
2022-12-18T21:04:21.061Z,9.10
2022-12-18T21:06:57.961Z,8.97
2022-12-18T21:09:37.457Z,8.70
2022-12-18T21:12:32.523Z,8.23
2022-12-18T21:15:04.930Z,7.90
2022-12-18T21:17:34.718Z,8.93
2022-12-18T21:20:18.025Z,9.00
2022-12-18T21:22:49.670Z,8.70
2022-12-18T21:25:18.034Z,10.23
2022-12-18T21:27:47.550Z,9.30
2022-12-18T21:30:16.749Z,8.03
2022-12-18T21:32:45.132Z,8.70
2022-12-18T21:35:13.251Z,9.80
2022-12-18T21:37:41.534Z,9.23
2022-12-18T21:40:11.384Z,9.10
2022-12-18T21:42:57.333Z,10.37
2022-12-18T21:45:27.149Z,9.70
2022-12-18T21:47:55.342Z,9.23
2022-12-18T21:50:23.534Z,8.93
2022-12-18T21:52:51.873Z,9.63
2022-12-18T21:55:28.285Z,9.37
2022-12-18T21:58:00.324Z,9.67
2022-12-18T22:00:29.908Z,9.17
2022-12-18T22:03:01.198Z,8.37
2022-12-18T22:05:46.297Z,9.40
2022-12-18T22:08:17.947Z,8.53
2022-12-18T22:10:46.298Z,9.37
2022-12-18T22:13:14.608Z,8.77
2022-12-18T22:15:44.247Z,8.80
2022-12-18T22:18:15.967Z,9.77
2022-12-18T22:20:44.219Z,9.53
2022-12-18T22:23:13.041Z,9.80
2022-12-18T22:25:41.230Z,8.77
2022-12-18T22:28:26.998Z,8.90
2022-12-18T22:30:59.134Z,9.07
2022-12-18T22:33:28.870Z,10.03
2022-12-18T22:35:57.026Z,9.70
2022-12-18T22:38:25.311Z,8.40
2022-12-18T22:40:53.460Z,9.57
2022-12-18T22:43:21.788Z,9.37
2022-12-18T22:45:51.598Z,9.10
2022-12-18T22:48:21.421Z,10.13
2022-12-18T22:50:49.601Z,10.00
2022-12-18T22:53:19.303Z,10.03
2022-12-18T22:55:47.718Z,9.63
2022-12-18T22:58:15.857Z,9.97
2022-12-18T23:00:44.309Z,9.47
2022-12-18T23:03:16.568Z,9.10
2022-12-18T23:05:47.888Z,10.10
2022-12-18T23:08:16.246Z,10.40
2022-12-18T23:10:58.298Z,10.07
2022-12-18T23:13:28.641Z,10.43
2022-12-18T23:15:57.227Z,8.90
2022-12-18T23:18:25.487Z,9.50
2022-12-18T23:20:55.113Z,9.23
2022-12-18T23:23:24.372Z,9.23
2022-12-18T23:25:52.563Z,9.77
2022-12-18T23:28:23.484Z,9.87
2022-12-18T23:30:51.848Z,9.17
2022-12-18T23:33:23.165Z,9.47
2022-12-18T23:36:03.580Z,10.03
2022-12-18T23:38:32.584Z,9.33
2022-12-18T23:41:00.842Z,9.90
2022-12-18T23:43:29.722Z,9.73
2022-12-18T23:45:57.877Z,10.53
2022-12-18T23:48:26.054Z,10.17
2022-12-18T23:50:56.378Z,10.50
2022-12-18T23:53:24.924Z,9.20
2022-12-18T23:55:53.307Z,10.90
2022-12-18T23:58:22.572Z,9.97
